Time;durP1;ratioP1;P1;durP2;ratioP2;P2;SDS_P1;SDS_P2;PMS_P1;PMS_P2;Temp;Humidity;BMP_temperature;BMP_pressure;BME280_temperature;BME280_humidity;BME280_pressure;Samples;Min_cycle;Max_cycle;Signal;HPM_P1;HPM_P2
2023/09/14 00:01:49;;;;;;;3.42;1.58;;;;;;;18.36;43.95;101813.31;4925705;29;20130;-83
2023/09/14 00:04:17;;;;;;;2.28;1.30;;;;;;;18.33;43.64;101808.94;4924764;29;20512;-81
2023/09/14 00:06:47;;;;;;;3.58;1.48;;;;;;;18.32;43.65;101795.25;4922474;29;20062;-82
2023/09/14 00:09:15;;;;;;;3.50;1.58;;;;;;;18.32;43.54;101803.56;4927718;29;20068;-81
2023/09/14 00:11:43;;;;;;;2.67;1.60;;;;;;;18.30;43.48;101802.88;4917980;29;20040;-82
2023/09/14 00:14:12;;;;;;;3.75;1.75;;;;;;;18.29;43.63;101801.13;4929663;28;20048;-83
2023/09/14 00:16:42;;;;;;;2.63;1.58;;;;;;;18.28;43.44;101797.50;4918407;29;20496;-81
2023/09/14 00:19:10;;;;;;;2.97;1.80;;;;;;;18.27;43.73;101804.06;4927355;29;20158;-82
2023/09/14 00:21:39;;;;;;;3.00;1.42;;;;;;;18.27;43.57;101805.97;4938674;29;20044;-81
2023/09/14 00:24:09;;;;;;;3.08;1.38;;;;;;;18.27;43.75;101795.75;4928996;29;20044;-80
2023/09/14 00:26:38;;;;;;;2.90;1.40;;;;;;;18.23;43.94;101793.44;4928306;29;20044;-83
2023/09/14 00:29:09;;;;;;;3.25;1.40;;;;;;;18.20;43.80;101789.13;4921003;28;20043;-82
2023/09/14 00:31:38;;;;;;;3.97;1.80;;;;;;;18.19;43.76;101790.16;4931031;29;20051;-81
2023/09/14 00:34:07;;;;;;;2.58;1.60;;;;;;;18.18;43.87;101798.63;4922333;29;20292;-81
2023/09/14 00:36:35;;;;;;;3.17;1.58;;;;;;;18.16;43.50;101801.53;4925359;29;20074;-80
2023/09/14 00:39:04;;;;;;;3.58;1.70;;;;;;;18.14;43.86;101798.09;4920499;29;20063;-80
2023/09/14 00:41:33;;;;;;;5.55;1.60;;;;;;;18.15;43.72;101802.56;4925818;29;20079;-82
2023/09/14 00:44:02;;;;;;;3.50;1.63;;;;;;;18.11;43.69;101799.28;4918690;29;20044;-82
2023/09/14 00:46:30;;;;;;;3.22;1.40;;;;;;;18.10;43.56;101794.75;4927121;29;20365;-82
2023/09/14 00:48:59;;;;;;;3.63;1.85;;;;;;;18.07;43.88;101797.84;4917139;29;20056;-82
2023/09/14 00:51:29;;;;;;;3.00;1.48;;;;;;;18.08;43.90;101795.94;4919891;29;20058;-82
2023/09/14 00:54:03;;;;;;;3.22;1.45;;;;;;;18.02;43.82;101794.69;4963792;23;20546;-85
2023/09/14 00:56:32;;;;;;;2.97;1.60;;;;;;;18.01;43.73;101794.84;4915084;29;20075;-85
2023/09/14 00:59:03;;;;;;;2.70;1.48;;;;;;;18.01;43.89;101798.47;4929393;29;20139;-84
2023/09/14 01:01:31;;;;;;;3.30;1.60;;;;;;;17.99;43.78;101792.22;4924472;29;20048;-84
2023/09/14 01:04:08;;;;;;;3.25;1.58;;;;;;;17.98;43.93;101801.56;4925373;29;20056;-87
2023/09/14 01:06:37;;;;;;;3.72;1.80;;;;;;;17.97;43.53;101793.44;4900501;29;20048;-85
2023/09/14 01:09:08;;;;;;;2.97;1.45;;;;;;;17.97;44.06;101796.22;4904000;29;20092;-86
2023/09/14 01:11:38;;;;;;;3.45;1.60;;;;;;;17.93;43.77;101795.66;4900172;29;20044;-85
2023/09/14 01:14:14;;;;;;;3.40;1.63;;;;;;;17.94;43.74;101802.94;4907646;29;20128;-85
2023/09/14 01:16:47;;;;;;;3.55;1.58;;;;;;;17.92;43.61;101806.88;4905643;29;20052;-85
2023/09/14 01:19:33;;;;;;;2.22;1.60;;;;;;;17.90;44.24;101809.81;4901270;29;20075;-85
2023/09/14 01:22:30;;;;;;;3.17;1.50;;;;;;;17.88;44.04;101811.88;4912836;29;20082;-84
2023/09/14 01:25:03;;;;;;;3.90;1.77;;;;;;;17.85;44.00;101812.19;4901565;29;20041;-86
2023/09/14 01:27:32;;;;;;;3.22;1.65;;;;;;;17.85;43.84;101811.31;4904876;29;20053;-85
2023/09/14 01:30:03;;;;;;;3.55;1.38;;;;;;;17.83;44.09;101813.38;4913864;29;20048;-84
2023/09/14 01:32:33;;;;;;;3.20;1.80;;;;;;;17.82;44.15;101811.63;4906199;29;20468;-86
2023/09/14 01:35:05;;;;;;;3.15;1.88;;;;;;;17.80;44.02;101813.72;4900166;29;20477;-86
2023/09/14 01:37:33;;;;;;;3.53;1.67;;;;;;;17.77;44.00;101812.13;4910303;29;20044;-86
2023/09/14 01:40:04;;;;;;;3.40;1.90;;;;;;;17.76;43.88;101811.25;4907869;29;20119;-85
2023/09/14 01:42:34;;;;;;;4.88;1.80;;;;;;;17.75;43.95;101812.25;4905251;29;20512;-83
2023/09/14 01:45:04;;;;;;;3.00;1.73;;;;;;;17.72;43.71;101820.88;4902025;29;20519;-84
2023/09/14 01:47:35;;;;;;;3.58;1.70;;;;;;;17.68;43.68;101819.44;4907802;29;20044;-84
2023/09/14 01:50:12;;;;;;;2.92;1.60;;;;;;;17.62;43.69;101817.31;4908054;29;20047;-84
2023/09/14 01:52:42;;;;;;;3.22;1.60;;;;;;;17.61;43.74;101811.91;4894539;29;20044;-83
2023/09/14 01:55:15;;;;;;;2.75;1.80;;;;;;;17.61;43.52;101812.78;4906202;29;20051;-83
2023/09/14 01:57:47;;;;;;;5.63;2.03;;;;;;;17.59;43.82;101816.75;4900885;29;20059;-84
2023/09/14 02:00:17;;;;;;;3.33;1.77;;;;;;;17.54;43.66;101822.75;4920794;29;20036;-83
2023/09/14 02:02:46;;;;;;;3.50;1.60;;;;;;;17.54;43.72;101820.00;4904589;29;20332;-84
2023/09/14 02:05:16;;;;;;;2.65;1.58;;;;;;;17.53;43.74;101820.13;4900052;29;20048;-84
2023/09/14 02:07:43;;;;;;;3.22;1.45;;;;;;;17.52;43.22;101815.63;4907688;29;20048;-84
2023/09/14 02:10:11;;;;;;;3.63;1.90;;;;;;;17.51;43.24;101824.94;4905159;29;20452;-84
2023/09/14 02:12:40;;;;;;;4.82;1.80;;;;;;;17.49;43.50;101814.03;4917821;29;20071;-85
2023/09/14 02:15:09;;;;;;;3.58;1.75;;;;;;;17.50;43.86;101815.78;4911520;29;20644;-84
2023/09/14 02:17:41;;;;;;;4.30;1.80;;;;;;;17.47;43.80;101816.13;4915056;29;20048;-85
2023/09/14 02:20:11;;;;;;;3.85;1.70;;;;;;;17.44;43.65;101813.66;4903552;29;20131;-84
2023/09/14 02:22:41;;;;;;;4.65;2.00;;;;;;;17.43;43.44;101816.56;4906926;29;20044;-85
2023/09/14 02:25:10;;;;;;;2.95;1.80;;;;;;;17.40;43.54;101820.53;4907398;29;20052;-85
2023/09/14 02:27:39;;;;;;;4.10;1.75;;;;;;;17.37;43.85;101818.06;4914048;29;20048;-84
2023/09/14 02:30:10;;;;;;;4.75;1.80;;;;;;;17.36;43.76;101827.38;4900978;29;20107;-84
2023/09/14 02:32:40;;;;;;;3.22;1.60;;;;;;;17.30;43.44;101823.34;4907773;29;20100;-84
2023/09/14 02:35:12;;;;;;;3.63;1.83;;;;;;;17.27;44.06;101828.31;4909686;29;20516;-84
2023/09/14 02:37:46;;;;;;;3.47;1.98;;;;;;;17.25;43.93;101819.28;4913849;29;20500;-84
2023/09/14 02:40:29;;;;;;;3.78;1.70;;;;;;;17.27;43.82;101828.31;4910219;29;20416;-84
2023/09/14 02:43:02;;;;;;;3.45;1.95;;;;;;;17.20;43.79;101825.31;4905841;29;20131;-84
2023/09/14 02:45:33;;;;;;;4.45;1.85;;;;;;;17.20;43.92;101825.31;4904495;29;20148;-84
2023/09/14 02:48:02;;;;;;;3.92;1.98;;;;;;;17.16;44.05;101821.09;4907559;29;20131;-84
2023/09/14 02:50:32;;;;;;;3.08;1.80;;;;;;;17.15;43.64;101822.16;4918209;29;20041;-83
2023/09/14 02:53:02;;;;;;;3.80;1.45;;;;;;;17.12;44.32;101825.22;4910843;29;20048;-84
2023/09/14 02:55:31;;;;;;;2.92;1.88;;;;;;;17.12;44.41;101827.97;4910375;29;20051;-85
2023/09/14 02:58:00;;;;;;;3.47;1.80;;;;;;;17.12;44.33;101829.88;4906113;29;20056;-83
2023/09/14 03:00:29;;;;;;;4.03;1.98;;;;;;;17.11;44.01;101825.34;4907896;29;20044;-84
2023/09/14 03:02:59;;;;;;;4.45;1.92;;;;;;;17.12;43.95;101827.97;4912421;29;20048;-84
2023/09/14 03:05:29;;;;;;;3.50;1.60;;;;;;;17.08;44.28;101821.00;4911238;29;20360;-83
2023/09/14 03:07:58;;;;;;;3.40;1.75;;;;;;;17.08;44.30;101825.66;4906245;29;20469;-84
2023/09/14 03:10:27;;;;;;;4.70;1.90;;;;;;;17.06;44.15;101820.28;4910856;29;20524;-83
2023/09/14 03:12:55;;;;;;;3.92;1.90;;;;;;;17.05;44.32;101820.44;4906222;29;20044;-83
2023/09/14 03:15:24;;;;;;;4.30;2.05;;;;;;;17.01;44.03;101817.09;4898709;29;20052;-83
2023/09/14 03:17:53;;;;;;;3.30;1.70;;;;;;;16.99;44.20;101811.72;4908068;29;20039;-83
2023/09/14 03:20:23;;;;;;;3.70;1.83;;;;;;;17.00;44.64;101818.13;4905299;29;20096;-83
2023/09/14 03:22:53;;;;;;;3.63;1.65;;;;;;;16.97;44.64;101827.63;4912349;29;20119;-84
2023/09/14 03:25:22;;;;;;;3.60;1.95;;;;;;;16.96;44.36;101825.84;4905436;29;20047;-83
2023/09/14 03:27:50;;;;;;;3.88;1.80;;;;;;;16.96;44.27;101819.44;4906631;29;20068;-84
2023/09/14 03:30:19;;;;;;;4.50;1.75;;;;;;;16.96;44.86;101802.84;4900662;29;20037;-84
2023/09/14 03:32:47;;;;;;;3.05;1.63;;;;;;;16.94;44.63;101814.06;4905317;29;20112;-84
2023/09/14 03:35:15;;;;;;;4.03;1.83;;;;;;;16.95;44.79;101809.38;4908786;29;20389;-84
2023/09/14 03:37:44;;;;;;;11.93;2.35;;;;;;;16.96;44.47;101809.25;4907791;29;20104;-83
2023/09/14 03:40:13;;;;;;;3.65;1.77;;;;;;;16.94;44.42;101807.66;4928393;29;20063;-85
2023/09/14 03:42:41;;;;;;;4.80;1.90;;;;;;;16.93;44.43;101812.31;4907836;29;20330;-85
2023/09/14 03:45:10;;;;;;;4.15;2.38;;;;;;;16.94;44.59;101807.66;4908460;29;20104;-84
2023/09/14 03:47:41;;;;;;;3.75;1.95;;;;;;;16.92;44.81;101810.56;4910490;29;20048;-85
2023/09/14 03:50:10;;;;;;;3.20;1.77;;;;;;;16.91;44.48;101803.28;4899816;29;20052;-86
2023/09/14 03:52:38;;;;;;;4.03;1.70;;;;;;;16.90;44.43;101807.09;4908592;29;20088;-85
2023/09/14 03:55:09;;;;;;;3.58;1.60;;;;;;;16.94;44.16;101813.19;4901734;29;20051;-84
2023/09/14 03:57:37;;;;;;;3.92;1.80;;;;;;;16.91;44.52;101808.81;4908258;29;20157;-84
2023/09/14 04:00:11;;;;;;;3.50;1.73;;;;;;;16.91;44.51;101817.09;4903419;29;20059;-84
2023/09/14 04:02:42;;;;;;;3.20;1.83;;;;;;;16.90;44.03;101814.53;4909538;29;20048;-85
2023/09/14 04:05:13;;;;;;;4.90;1.98;;;;;;;16.92;44.26;101804.16;4902544;29;20072;-84
2023/09/14 04:07:42;;;;;;;4.40;1.77;;;;;;;16.90;44.05;101804.34;4907559;29;20311;-85
2023/09/14 04:10:12;;;;;;;3.25;1.60;;;;;;;16.93;44.12;101803.13;4909365;29;20040;-85
2023/09/14 04:12:41;;;;;;;3.28;1.70;;;;;;;16.90;44.47;101806.22;4910991;29;20054;-84
2023/09/14 04:15:10;;;;;;;3.85;1.88;;;;;;;16.89;43.82;101804.47;4903333;29;20055;-85
2023/09/14 04:17:40;;;;;;;4.85;2.00;;;;;;;16.89;44.20;101802.59;4911169;29;20460;-85
2023/09/14 04:20:09;;;;;;;3.15;1.75;;;;;;;16.88;44.26;101798.09;4912243;29;20071;-84
2023/09/14 04:22:39;;;;;;;3.63;1.80;;;;;;;16.87;44.16;101815.69;4905708;29;20092;-85
2023/09/14 04:25:07;;;;;;;4.47;1.95;;;;;;;16.87;43.89;101815.69;4903407;29;20115;-84
2023/09/14 04:27:38;;;;;;;4.82;1.85;;;;;;;16.87;44.17;101812.94;4906512;29;20047;-84
2023/09/14 04:30:08;;;;;;;3.13;1.70;;;;;;;16.86;44.22;101810.31;4906361;29;21218;-85
2023/09/14 04:32:38;;;;;;;3.75;1.70;;;;;;;16.83;44.15;101824.41;4910499;29;20047;-84
2023/09/14 04:35:08;;;;;;;3.42;1.67;;;;;;;16.84;44.09;101821.50;4913911;29;20582;-84
2023/09/14 04:37:36;;;;;;;4.53;1.80;;;;;;;16.83;44.28;101818.91;4913069;29;20045;-85
2023/09/14 04:40:09;;;;;;;3.10;1.90;;;;;;;16.81;43.95;101820.97;4910728;29;20063;-84
2023/09/14 04:42:39;;;;;;;3.58;1.63;;;;;;;16.80;44.20;101822.84;4911766;29;20064;-86
2023/09/14 04:45:08;;;;;;;3.45;1.88;;;;;;;16.78;44.13;101822.13;4907343;29;20052;-84
2023/09/14 04:47:36;;;;;;;3.95;2.45;;;;;;;16.78;44.32;101819.38;4923526;29;20100;-84
2023/09/14 04:50:05;;;;;;;4.28;2.13;;;;;;;16.78;43.88;101826.78;4905555;29;20052;-85
2023/09/14 04:52:33;;;;;;;3.47;1.85;;;;;;;16.76;44.03;101826.06;4909036;29;20052;-84
2023/09/14 04:55:04;;;;;;;4.82;2.30;;;;;;;16.75;44.51;101825.19;4905026;29;20055;-85
2023/09/14 05:35:06;;;;;;;3.90;2.08;;;;;;;16.46;45.23;101828.06;4668619;30;20056;-84
2023/09/14 05:37:35;;;;;;;3.97;2.28;;;;;;;16.48;45.23;101834.31;4819357;29;20481;-84
2023/09/14 05:40:11;;;;;;;4.15;2.00;;;;;;;16.50;45.30;101829.47;4899969;29;20051;-84
2023/09/14 05:42:42;;;;;;;5.05;2.22;;;;;;;16.50;44.91;101835.00;4907937;29;20051;-85
2023/09/14 05:45:12;;;;;;;4.45;2.33;;;;;;;16.54;45.40;101839.22;4906345;29;20063;-85
2023/09/14 05:47:42;;;;;;;3.78;2.13;;;;;;;16.55;45.44;101842.88;4909129;29;20056;-85
2023/09/14 05:50:12;;;;;;;4.30;2.20;;;;;;;16.57;45.13;101838.06;4905767;29;20080;-85
2023/09/14 05:52:40;;;;;;;4.78;2.42;;;;;;;16.56;45.10;101845.50;4907194;29;20056;-86
2023/09/14 05:55:10;;;;;;;5.32;2.15;;;;;;;16.58;45.41;101846.19;4912482;29;20429;-86
2023/09/14 06:17:04;;;;;;;4.15;2.50;;;;;;;16.56;45.57;101861.19;4911835;29;20061;-85
2023/09/14 06:19:32;;;;;;;5.22;3.05;;;;;;;16.57;45.55;101861.06;4912463;29;20148;-85
2023/09/14 06:22:00;;;;;;;6.25;2.42;;;;;;;16.59;45.72;101860.88;4926427;29;20147;-84
2023/09/14 06:24:28;;;;;;;5.13;2.65;;;;;;;16.61;45.50;101864.38;4907303;29;20096;-84
2023/09/14 06:26:56;;;;;;;5.53;2.72;;;;;;;16.63;45.59;101873.41;4906257;29;20534;-85
2023/09/14 06:29:24;;;;;;;5.00;3.13;;;;;;;16.64;45.41;101875.13;4913265;29;20126;-85
2023/09/14 06:31:52;;;;;;;7.07;3.03;;;;;;;16.65;45.73;101876.88;4912358;29;20086;-85
2023/09/14 06:34:21;;;;;;;4.18;2.42;;;;;;;16.69;45.32;101877.44;4915376;29;20040;-86
2023/09/14 06:36:49;;;;;;;6.63;3.00;;;;;;;16.68;45.29;101886.75;4909947;29;20499;-85
2023/09/14 06:39:17;;;;;;;4.50;2.58;;;;;;;16.70;45.73;101880.06;4905639;29;20476;-87
2023/09/14 06:41:45;;;;;;;5.38;3.17;;;;;;;16.71;45.42;101890.09;4906950;29;20052;-87
2023/09/14 06:44:13;;;;;;;5.47;2.72;;;;;;;16.75;45.59;101887.91;4904183;29;20568;-86
2023/09/14 06:46:42;;;;;;;5.22;2.75;;;;;;;16.77;45.87;101889.50;4903758;29;20143;-86
2023/09/14 06:52:08;;;;;;;7.60;3.65;;;;;;;16.92;47.09;101892.63;4919735;29;20039;-85
2023/09/14 06:54:57;;;;;;;6.35;3.53;;;;;;;17.01;47.08;101891.78;4898608;29;20099;-86
2023/09/14 06:57:51;;;;;;;6.20;3.47;;;;;;;17.14;46.96;101895.09;4924413;29;20108;-87
2023/09/14 07:00:22;;;;;;;;;;;;;;;16.96;47.62;101888.56;4913835;29;20050;-87
2023/09/14 07:15:46;;;;;;;6.10;3.28;;;;;;;17.65;44.92;101888.06;4901978;29;20103;-86
2023/09/14 07:18:28;;;;;;;5.20;2.95;;;;;;;17.73;44.39;101889.03;4905555;29;20050;-86
2023/09/14 07:20:58;;;;;;;5.85;3.42;;;;;;;17.73;45.11;101894.56;4908092;29;20419;-86
2023/09/14 07:23:27;;;;;;;5.35;3.50;;;;;;;17.77;45.85;101890.53;4918483;29;20412;-84
2023/09/14 07:25:55;;;;;;;6.70;3.92;;;;;;;17.84;46.41;101893.53;4912635;29;20154;-83
2023/09/14 07:28:23;;;;;;;6.10;3.92;;;;;;;17.92;46.82;101896.38;4910091;29;20112;-84
2023/09/14 07:30:54;;;;;;;6.10;3.97;;;;;;;18.07;46.58;101893.91;4899927;29;20044;-85
2023/09/14 07:33:25;;;;;;;7.57;4.15;;;;;;;18.19;46.50;101898.22;4911611;29;20123;-85
2023/09/14 07:35:54;;;;;;;6.43;3.95;;;;;;;18.35;46.22;101900.25;4906207;29;20048;-85
2023/09/14 07:38:22;;;;;;;6.88;3.90;;;;;;;18.48;45.41;101904.38;4911652;29;20068;-85
2023/09/14 07:40:50;;;;;;;6.63;4.13;;;;;;;18.59;44.68;101907.91;4910104;29;20052;-84
2023/09/14 07:43:18;;;;;;;6.53;4.05;;;;;;;18.66;44.09;101909.00;4906530;29;20041;-84
2023/09/14 07:45:47;;;;;;;6.03;4.20;;;;;;;18.71;43.89;101906.63;4904223;29;20056;-86
2023/09/14 07:48:17;;;;;;;7.85;4.03;;;;;;;18.77;43.76;101911.53;4902028;29;20032;-85
2023/09/14 07:50:45;;;;;;;5.20;3.60;;;;;;;18.78;43.69;101919.69;4905450;29;20056;-85
2023/09/14 07:53:13;;;;;;;6.85;3.40;;;;;;;18.80;43.86;101906.50;4911457;29;20044;-85
2023/09/14 07:55:41;;;;;;;7.03;3.78;;;;;;;18.81;43.68;101915.69;4903384;29;20564;-84
2023/09/14 07:58:09;;;;;;;7.07;3.30;;;;;;;18.83;43.72;101916.41;4907854;29;20044;-85
2023/09/14 08:00:38;;;;;;;5.30;3.45;;;;;;;18.82;43.52;101915.53;4908306;29;20059;-85
2023/09/14 08:03:06;;;;;;;7.88;3.50;;;;;;;18.84;43.19;101918.16;4908038;29;20500;-85
2023/09/14 08:05:36;;;;;;;5.13;3.38;;;;;;;18.88;43.64;101922.38;4903241;29;20064;-86
2023/09/14 08:08:04;;;;;;;4.97;3.20;;;;;;;18.88;43.68;101917.66;4911498;29;20767;-85
2023/09/14 08:10:32;;;;;;;5.47;3.13;;;;;;;18.91;43.78;101910.91;4910593;29;20044;-85
2023/09/14 08:13:00;;;;;;;5.38;2.88;;;;;;;18.93;43.50;101910.75;4906572;29;20040;-85
2023/09/14 08:15:29;;;;;;;4.65;2.92;;;;;;;18.96;43.18;101910.44;4900359;29;20067;-86
2023/09/14 08:17:57;;;;;;;5.78;3.08;;;;;;;18.98;43.46;101908.34;4906289;29;20119;-86
2023/09/14 08:20:27;;;;;;;4.88;3.05;;;;;;;19.02;43.56;101905.09;4909142;29;20048;-86
2023/09/14 08:22:56;;;;;;;6.10;3.65;;;;;;;19.08;43.40;101909.97;4905731;29;20083;-85
2023/09/14 08:25:24;;;;;;;5.75;3.80;;;;;;;19.11;43.38;101906.03;4906179;29;20059;-84
2023/09/14 08:27:52;;;;;;;6.25;3.50;;;;;;;19.15;43.88;101916.59;4909429;29;20040;-83
2023/09/14 08:30:22;;;;;;;5.18;3.33;;;;;;;19.19;43.29;101908.84;4907776;29;20055;-85
2023/09/14 08:32:50;;;;;;;5.13;3.30;;;;;;;19.24;43.33;101915.66;4907349;29;20109;-84
2023/09/14 08:35:23;;;;;;;6.00;3.67;;;;;;;19.31;43.13;101913.06;4910978;29;20534;-84
2023/09/14 08:37:53;;;;;;;5.72;3.45;;;;;;;19.35;43.45;101919.19;4906467;29;20091;-85
2023/09/14 08:40:24;;;;;;;5.32;3.53;;;;;;;19.40;43.20;101917.63;4906012;29;20048;-84
2023/09/14 08:42:53;;;;;;;5.80;3.90;;;;;;;19.43;43.19;101925.63;4925038;29;20052;-85
2023/09/14 08:45:25;;;;;;;6.72;4.07;;;;;;;19.49;42.76;101932.41;4905863;29;20072;-84
2023/09/14 08:47:54;;;;;;;7.40;4.60;;;;;;;19.50;42.84;101923.94;4907021;29;20072;-83
2023/09/14 08:50:26;;;;;;;6.80;4.55;;;;;;;19.55;43.17;101932.63;4909744;29;20075;-84
2023/09/14 08:52:56;;;;;;;8.43;5.60;;;;;;;19.54;43.02;101930.03;4901509;29;20048;-83
2023/09/14 08:55:30;;;;;;;7.43;4.85;;;;;;;19.59;42.60;101930.38;4922259;29;20040;-84
2023/09/14 08:57:58;;;;;;;6.85;5.07;;;;;;;19.57;43.25;101921.34;4905574;29;20131;-83
2023/09/14 09:00:28;;;;;;;7.35;5.45;;;;;;;19.60;42.53;101929.34;4910755;29;20059;-84
2023/09/14 09:02:57;;;;;;;6.60;5.32;;;;;;;19.59;42.54;101917.38;4910266;29;20058;-82
2023/09/14 09:05:27;;;;;;;7.32;5.00;;;;;;;19.60;42.74;101919.13;4904402;29;20146;-82
2023/09/14 09:07:56;;;;;;;6.65;4.82;;;;;;;19.61;42.42;101915.31;4906491;29;20475;-84
2023/09/14 09:10:27;;;;;;;6.68;4.47;;;;;;;19.63;42.55;101915.97;4905689;29;20060;-83
2023/09/14 09:12:57;;;;;;;6.78;4.18;;;;;;;19.62;42.54;101911.47;4910742;29;20405;-84
2023/09/14 09:15:32;;;;;;;7.00;4.22;;;;;;;19.61;42.66;101912.53;4904554;29;20057;-84
2023/09/14 09:18:07;;;;;;;6.78;4.65;;;;;;;19.65;41.93;101911.13;4905905;29;20044;-85
2023/09/14 09:20:37;;;;;;;6.43;4.28;;;;;;;19.65;42.26;101910.25;4901858;29;20062;-84
2023/09/14 09:23:06;;;;;;;7.97;4.75;;;;;;;19.68;42.67;101920.19;4913437;29;20044;-84
2023/09/14 09:28:47;;;;;;;9.25;6.78;;;;;;;19.70;42.30;101913.44;4903883;29;20067;-83
2023/09/14 09:31:45;;;;;;;9.10;6.75;;;;;;;19.71;42.11;101917.91;4915084;29;20048;-84
2023/09/14 09:34:24;;;;;;;7.72;6.00;;;;;;;19.70;42.55;101915.34;4904783;29;20052;-84
2023/09/14 09:36:57;;;;;;;8.70;6.88;;;;;;;19.72;42.11;101916.00;4900538;29;20401;-83
2023/09/14 09:39:26;;;;;;;9.77;7.40;;;;;;;19.70;42.57;101912.56;4926255;29;20066;-84
2023/09/14 09:41:56;;;;;;;9.23;7.72;;;;;;;19.72;42.48;101916.88;4929805;29;20048;-83
2023/09/14 09:44:27;;;;;;;8.43;7.32;;;;;;;19.71;42.19;101914.31;4911996;29;20052;-84
2023/09/14 09:46:57;;;;;;;7.57;6.13;;;;;;;19.70;42.30;101915.34;4912598;29;20131;-83
2023/09/14 09:49:29;;;;;;;8.63;6.43;;;;;;;19.73;41.94;101910.28;4913132;29;20071;-84
2023/09/14 09:54:41;;;;;;;7.95;6.30;;;;;;;19.72;42.62;101902.13;4907433;29;20209;-83
2023/09/14 09:57:10;;;;;;;8.80;7.30;;;;;;;19.76;42.87;101903.53;4909549;29;20043;-84
2023/09/14 09:59:41;;;;;;;10.27;8.30;;;;;;;19.79;42.29;101904.03;4907731;29;20044;-83
2023/09/14 10:02:11;;;;;;;9.02;7.15;;;;;;;19.81;42.00;101901.97;4911273;29;20048;-83
2023/09/14 10:04:39;;;;;;;8.80;7.32;;;;;;;19.82;42.49;101897.28;4907261;29;20104;-84
2023/09/14 10:07:09;;;;;;;12.00;9.18;;;;;;;19.83;41.95;101896.25;4909803;29;20508;-84
2023/09/14 10:09:38;;;;;;;10.55;7.30;;;;;;;19.84;42.07;101900.78;4898549;29;20060;-83
2023/09/14 10:12:07;;;;;;;9.48;7.57;;;;;;;19.85;42.13;101892.28;4910772;29;20056;-83
2023/09/14 10:14:40;;;;;;;9.25;8.05;;;;;;;19.88;42.01;101897.47;4911828;29;20056;-83
2023/09/14 10:17:17;;;;;;;9.90;8.02;;;;;;;19.90;41.84;101900.09;4899435;29;20060;-83
2023/09/14 10:19:47;;;;;;;9.85;7.80;;;;;;;19.90;42.24;101903.75;4910449;29;20062;-84
2023/09/14 10:22:18;;;;;;;12.20;8.38;;;;;;;19.93;42.04;101897.00;4930615;29;20051;-85
2023/09/14 10:24:46;;;;;;;9.50;7.47;;;;;;;19.97;42.14;101892.84;4920658;29;20072;-85
2023/09/14 10:27:15;;;;;;;9.52;8.02;;;;;;;20.02;42.10;101891.31;4903518;29;20052;-84
2023/09/14 10:29:45;;;;;;;9.23;7.50;;;;;;;20.09;41.87;101893.38;4910894;29;20337;-83
2023/09/14 10:32:15;;;;;;;10.05;7.97;;;;;;;20.12;41.52;101884.72;4914976;29;20782;-83
2023/09/14 10:34:44;;;;;;;10.40;7.35;;;;;;;20.16;41.45;101881.41;4909422;29;20044;-84
2023/09/14 10:37:34;;;;;;;8.90;7.15;;;;;;;20.17;41.24;101874.81;4918819;29;20072;-84
2023/09/14 10:40:05;;;;;;;9.63;7.72;;;;;;;20.23;41.10;101882.44;4908077;29;20052;-84
2023/09/14 10:43:00;;;;;;;10.88;7.25;;;;;;;20.23;40.22;101876.03;4909207;29;20464;-84
2023/09/14 10:46:00;;;;;;;9.02;7.20;;;;;;;20.27;41.15;101878.28;4866260;29;20154;-85
2023/09/14 10:48:30;;;;;;;8.90;6.72;;;;;;;20.32;41.38;101877.75;4912219;29;20047;-84
2023/09/14 10:50:59;;;;;;;8.35;6.43;;;;;;;20.35;41.23;101878.28;4913867;29;20103;-84
2023/09/14 10:53:28;;;;;;;9.05;7.40;;;;;;;20.40;40.91;101875.84;4909367;29;20044;-84
2023/09/14 10:55:57;;;;;;;8.82;7.55;;;;;;;20.46;40.83;101876.19;4913699;29;20048;-84
2023/09/14 10:58:26;;;;;;;6.75;5.70;;;;;;;20.51;40.46;101871.84;4916512;29;20052;-84
2023/09/14 11:01:08;;;;;;;7.13;4.90;;;;;;;20.60;38.78;101867.19;4909471;29;20055;-84
2023/09/14 11:04:08;;;;;;;7.88;5.53;;;;;;;20.62;39.26;101867.84;4911701;29;20055;-84
2023/09/14 11:06:49;;;;;;;7.80;5.72;;;;;;;20.69;39.04;101867.00;4915470;29;20063;-83
2023/09/14 11:10:04;;;;;;;7.47;5.93;;;;;;;20.74;39.16;101863.66;4907228;29;20116;-84
2023/09/14 11:12:34;;;;;;;6.75;5.47;;;;;;;20.80;40.12;101864.88;4895357;29;20139;-85
2023/09/14 11:15:12;;;;;;;7.18;5.60;;;;;;;20.89;38.72;101861.91;4910466;29;20048;-84
2023/09/14 11:17:44;;;;;;;5.07;3.83;;;;;;;20.95;38.72;101854.72;4900737;29;20048;-85
2023/09/14 11:20:39;;;;;;;5.03;3.60;;;;;;;20.99;38.26;101851.44;4905245;29;20055;-85
2023/09/14 11:23:10;;;;;;;6.55;4.20;;;;;;;21.05;38.50;101847.94;4907490;29;20123;-85
2023/09/14 11:25:41;;;;;;;5.78;3.97;;;;;;;21.13;38.21;101847.91;4905712;29;20120;-85
2023/09/14 11:28:34;;;;;;;4.55;3.67;;;;;;;21.18;37.88;101847.38;4906237;29;20048;-86
2023/09/14 11:31:05;;;;;;;4.88;3.28;;;;;;;21.22;37.43;101848.72;4907502;29;20124;-87
2023/09/14 11:33:37;;;;;;;5.57;3.28;;;;;;;21.31;37.31;101850.47;4913315;29;20512;-84
2023/09/14 11:36:09;;;;;;;5.25;3.40;;;;;;;21.33;37.17;101845.59;4911898;29;20099;-86
2023/09/14 11:38:44;;;;;;;4.60;3.42;;;;;;;21.39;36.72;101847.63;4902097;29;20047;-85
2023/09/14 11:41:36;;;;;;;3.88;2.80;;;;;;;21.43;36.02;101849.03;4902678;29;20051;-85
2023/09/14 11:44:06;;;;;;;4.47;3.15;;;;;;;21.45;36.40;101844.13;4906526;29;20040;-84
2023/09/14 11:46:57;;;;;;;4.75;2.90;;;;;;;21.51;36.60;101848.13;4906373;29;20046;-84
2023/09/14 11:49:37;;;;;;;4.20;2.97;;;;;;;21.56;36.04;101851.22;4905447;29;20144;-85
2023/09/14 11:52:07;;;;;;;5.03;3.25;;;;;;;21.59;36.33;101847.19;4905137;29;20055;-85
2023/09/14 11:54:36;;;;;;;4.70;3.30;;;;;;;21.63;36.24;101840.19;4909025;29;20036;-82
2023/09/14 11:57:05;;;;;;;6.30;4.32;;;;;;;21.67;35.78;101845.22;4902414;29;20051;-85
2023/09/14 11:59:34;;;;;;;4.85;3.58;;;;;;;21.69;35.60;101837.53;4898797;29;20104;-85
2023/09/14 12:02:04;;;;;;;4.57;3.00;;;;;;;21.72;35.49;101839.97;4912002;29;20099;-85
2023/09/14 12:04:32;;;;;;;5.05;3.20;;;;;;;21.74;35.35;101839.78;4907521;29;20044;-84
2023/09/14 12:07:04;;;;;;;4.53;3.17;;;;;;;21.78;34.63;101839.22;4905930;29;20059;-85
2023/09/14 12:09:37;;;;;;;4.72;3.17;;;;;;;21.77;34.76;101833.81;4902059;29;20045;-85
2023/09/14 12:12:10;;;;;;;4.72;3.17;;;;;;;21.79;35.20;101831.72;4901875;29;20210;-84
2023/09/14 12:14:40;;;;;;;4.82;3.63;;;;;;;21.81;35.33;101830.50;4906770;29;20052;-85
2023/09/14 12:17:22;;;;;;;4.72;4.00;;;;;;;21.85;34.32;101833.75;4907520;29;20044;-84
2023/09/14 12:19:52;;;;;;;6.90;4.53;;;;;;;21.84;35.62;101829.28;4912773;29;20107;-85
2023/09/14 12:22:22;;;;;;;6.47;4.40;;;;;;;21.89;35.45;101829.56;4906031;29;20175;-82
2023/09/14 12:24:51;;;;;;;5.22;3.88;;;;;;;21.91;35.69;101826.63;4926339;29;20051;-82
2023/09/14 12:27:20;;;;;;;6.68;4.07;;;;;;;21.93;35.77;101819.84;4911402;29;20136;-84
2023/09/14 12:29:49;;;;;;;5.60;4.18;;;;;;;21.97;35.59;101820.31;4903643;29;20476;-85
2023/09/14 12:32:18;;;;;;;5.93;4.20;;;;;;;22.00;35.35;101814.38;4906178;29;20084;-86
2023/09/14 12:34:46;;;;;;;5.47;4.03;;;;;;;22.04;35.24;101810.13;4912104;29;20052;-85
2023/09/14 12:37:18;;;;;;;5.22;4.00;;;;;;;22.07;35.40;101813.44;4907419;29;20139;-84
2023/09/14 12:39:51;;;;;;;5.50;3.90;;;;;;;22.11;35.04;101812.00;4908230;29;20056;-84
2023/09/14 12:42:22;;;;;;;5.50;3.95;;;;;;;22.14;35.19;101813.53;4906293;29;20048;-85
2023/09/14 12:44:52;;;;;;;5.32;3.83;;;;;;;22.18;34.70;101806.53;4913684;29;20505;-85
2023/09/14 12:47:20;;;;;;;4.82;3.67;;;;;;;22.20;35.04;101804.41;4904168;29;20576;-85
2023/09/14 12:49:49;;;;;;;5.07;3.80;;;;;;;22.24;34.09;101812.25;4912210;29;20055;-85
2023/09/14 12:52:40;;;;;;;5.18;3.88;;;;;;;22.30;34.50;101815.31;4913826;29;20048;-86
2023/09/14 13:03:32;;;;;;;4.97;3.60;;;;;;;22.36;33.83;101795.91;4843122;29;20045;-85
2023/09/14 13:06:03;;;;;;;4.45;3.70;;;;;;;22.38;33.83;101799.38;4912448;29;20494;-85
2023/09/14 13:19:58;;;;;;;4.53;3.38;;;;;;;22.39;33.00;101789.09;4910329;29;20092;-85
2023/09/14 13:22:27;;;;;;;5.13;3.38;;;;;;;22.40;33.17;101790.81;4908434;29;20570;-85